Aviation Digital Data Service (ADDS)

Output produced by METARs form (1359 UTC 27 June 2017)
found at http://aviationweather.gov/adds/metars/
 
KHLG 271120Z 2712/2812 26007KT P6SM SCT080 
     FM271500 27010G18KT P6SM BKN050 
     FM272200 28008KT P6SM SCT050